createdAt,value
2024-05-09T00:00:30.582Z,4.43
2024-05-09T00:03:40.508Z,4.50
2024-05-09T00:06:44.970Z,4.68
2024-05-09T00:09:46.798Z,4.47
2024-05-09T00:12:48.667Z,4.70
2024-05-09T00:15:50.515Z,4.15
2024-05-09T00:18:52.434Z,4.47
2024-05-09T00:21:57.080Z,4.60
2024-05-09T00:24:59.162Z,4.20
2024-05-09T00:28:01.027Z,4.25
2024-05-09T00:31:03.120Z,4.28
2024-05-09T00:34:05.187Z,4.15
2024-05-09T00:37:09.790Z,3.47
2024-05-09T00:40:18.343Z,3.08
2024-05-09T00:43:24.667Z,2.88
2024-05-09T00:46:26.655Z,3.10
2024-05-09T00:49:28.771Z,3.05
2024-05-09T00:52:33.488Z,2.85
2024-05-09T00:55:36.579Z,3.42
2024-05-09T00:58:39.284Z,3.28
2024-05-09T01:01:43.139Z,2.97
2024-05-09T01:04:45.275Z,3.10
2024-05-09T01:07:50.010Z,3.10
2024-05-09T01:10:52.030Z,3.40
2024-05-09T01:13:54.021Z,3.78
2024-05-09T01:16:56.195Z,3.30
2024-05-09T01:19:58.092Z,3.40
2024-05-09T01:23:07.624Z,4.22
2024-05-09T01:26:09.663Z,3.92
2024-05-09T01:29:11.593Z,3.85
2024-05-09T01:32:13.604Z,3.70
2024-05-09T01:35:16.292Z,4.10
2024-05-09T01:38:20.873Z,4.63
2024-05-09T01:41:22.851Z,4.10
2024-05-09T01:44:24.872Z,3.58
2024-05-09T01:47:27.025Z,3.97
2024-05-09T01:50:37.565Z,4.13
2024-05-09T01:53:45.970Z,3.42
2024-05-09T01:56:47.831Z,3.33
2024-05-09T01:59:49.700Z,3.20
2024-05-09T02:02:51.710Z,3.25
2024-05-09T02:05:53.680Z,3.63
2024-05-09T02:08:58.224Z,3.47
2024-05-09T02:12:00.143Z,3.22
2024-05-09T02:15:02.082Z,3.10
2024-05-09T02:18:04.719Z,2.83
2024-05-09T02:21:08.538Z,3.22
2024-05-09T02:24:13.028Z,3.00
2024-05-09T02:27:14.879Z,2.95
2024-05-09T02:30:25.817Z,3.33
2024-05-09T02:33:37.501Z,2.90
2024-05-09T02:36:39.562Z,3.58
2024-05-09T02:39:44.038Z,3.35
2024-05-09T02:42:45.914Z,3.03
2024-05-09T02:45:47.756Z,2.88
2024-05-09T02:48:49.733Z,2.72
2024-05-09T02:51:51.626Z,3.10
2024-05-09T02:54:56.184Z,2.75
2024-05-09T02:57:58.130Z,2.60
2024-05-09T03:01:00.043Z,2.45
2024-05-09T03:04:02.117Z,2.70
2024-05-09T03:07:04.401Z,2.80
2024-05-09T03:10:18.176Z,2.80
2024-05-09T03:13:24.330Z,2.40
2024-05-09T03:16:26.156Z,2.20
2024-05-09T03:19:28.080Z,2.40
2024-05-09T03:22:29.951Z,2.40
2024-05-09T03:25:34.686Z,2.70
2024-05-09T03:28:36.582Z,2.63
2024-05-09T03:31:39.159Z,2.60
2024-05-09T03:34:41.093Z,2.20
2024-05-09T03:37:43.116Z,2.47
2024-05-09T03:40:49.914Z,2.47
2024-05-09T03:43:52.490Z,2.60
2024-05-09T03:46:54.402Z,2.65
2024-05-09T03:49:56.261Z,2.30
2024-05-09T03:52:58.169Z,2.28
2024-05-09T03:56:02.709Z,2.35
2024-05-09T03:59:04.644Z,2.40
2024-05-09T04:02:06.707Z,2.47
2024-05-09T04:05:08.623Z,1.88
2024-05-09T04:08:11.187Z,2.22
2024-05-09T04:11:16.176Z,2.33
2024-05-09T04:14:18.062Z,2.10
2024-05-09T04:17:19.934Z,2.50
2024-05-09T04:20:32.852Z,2.10
2024-05-09T04:23:40.091Z,2.22
2024-05-09T04:26:44.604Z,1.95
2024-05-09T04:29:46.452Z,2.05
2024-05-09T04:32:50.034Z,2.10
2024-05-09T04:35:51.953Z,1.90
2024-05-09T04:38:53.829Z,1.90
2024-05-09T04:41:58.479Z,2.00
2024-05-09T04:45:00.516Z,1.98
2024-05-09T04:48:03.039Z,1.90
2024-05-09T04:51:07.430Z,1.95
2024-05-09T04:54:15.663Z,1.70
2024-05-09T04:57:26.238Z,2.20
2024-05-09T05:00:35.346Z,1.90
2024-05-09T05:03:39.622Z,1.95
2024-05-09T05:06:41.613Z,2.00
2024-05-09T05:09:43.456Z,1.88
2024-05-09T05:12:47.891Z,2.13
2024-05-09T05:15:51.547Z,2.10
2024-05-09T05:18:53.587Z,2.20
2024-05-09T05:21:55.515Z,2.30
2024-05-09T05:24:57.311Z,2.03
2024-05-09T05:28:01.839Z,2.08
2024-05-09T05:31:03.814Z,1.90
2024-05-09T05:34:05.710Z,2.05
2024-05-09T05:37:07.639Z,2.03
2024-05-09T05:40:14.603Z,1.70
2024-05-09T05:43:21.935Z,1.90
2024-05-09T05:46:23.808Z,1.90
2024-05-09T05:49:26.206Z,1.77
2024-05-09T05:52:28.141Z,2.00
2024-05-09T05:55:29.990Z,1.85
2024-05-09T05:58:34.532Z,1.90
2024-05-09T06:01:36.412Z,2.10
2024-05-09T06:04:38.310Z,1.88
2024-05-09T06:07:40.161Z,2.30
2024-05-09T06:10:42.570Z,2.08
2024-05-09T06:13:47.274Z,1.75
2024-05-09T06:16:49.152Z,2.10
2024-05-09T06:19:51.220Z,1.90
2024-05-09T06:22:53.194Z,1.60
2024-05-09T06:25:55.221Z,1.65
2024-05-09T06:29:01.113Z,1.85
2024-05-09T06:32:03.428Z,1.90
2024-05-09T06:35:06.340Z,1.77
2024-05-09T06:38:08.583Z,2.15
2024-05-09T06:41:10.927Z,1.90
2024-05-09T06:44:16.070Z,1.90
2024-05-09T06:47:18.498Z,1.80
2024-05-09T06:50:24.193Z,1.48
2024-05-09T06:56:31.971Z,2.00
2024-05-09T06:59:37.149Z,2.10
2024-05-09T07:02:39.550Z,2.20
2024-05-09T07:05:42.108Z,1.90
2024-05-09T07:08:44.496Z,1.52
2024-05-09T07:11:46.790Z,2.00
2024-05-09T07:14:51.909Z,1.90
2024-05-09T07:17:54.381Z,1.90
2024-05-09T07:20:56.339Z,1.50
2024-05-09T07:23:58.248Z,1.92
2024-05-09T07:27:00.186Z,1.80
2024-05-09T07:30:07.139Z,1.85
2024-05-09T07:33:09.432Z,1.77
2024-05-09T07:36:11.475Z,1.88
2024-05-09T07:39:13.390Z,1.80
2024-05-09T07:42:15.345Z,1.75
2024-05-09T07:45:39.888Z,1.80
2024-05-09T07:53:16.993Z,1.65
2024-05-09T07:55:08.468Z,1.65
2024-05-09T07:58:10.469Z,2.10
2024-05-09T08:01:15.142Z,2.10
2024-05-09T08:04:17.255Z,1.85
2024-05-09T08:07:19.242Z,1.80
2024-05-09T08:10:24.676Z,1.45
2024-05-09T08:13:31.227Z,1.77
2024-05-09T08:16:35.759Z,1.90
2024-05-09T08:19:37.706Z,1.85
2024-05-09T08:22:39.671Z,1.98
2024-05-09T08:25:41.549Z,1.80
2024-05-09T08:28:43.415Z,1.67
2024-05-09T08:31:47.961Z,2.00
2024-05-09T08:34:50.071Z,1.50
2024-05-09T08:37:52.025Z,1.52
2024-05-09T08:40:54.052Z,2.92
2024-05-09T08:43:55.909Z,1.92
2024-05-09T08:47:00.470Z,1.40
2024-05-09T08:50:05.071Z,1.60
2024-05-09T08:53:07.104Z,1.50
2024-05-09T08:56:11.905Z,1.85
2024-05-09T08:59:21.104Z,1.55
2024-05-09T09:02:27.634Z,1.55
2024-05-09T09:05:31.989Z,1.70
2024-05-09T09:08:34.489Z,1.75
2024-05-09T09:11:36.414Z,1.60
2024-05-09T09:14:38.253Z,1.70
2024-05-09T09:17:54.424Z,1.70
2024-05-09T09:20:56.584Z,1.60
2024-05-09T09:23:58.434Z,1.80
2024-05-09T09:27:00.269Z,1.60
2024-05-09T09:30:02.204Z,1.90
2024-05-09T09:33:08.338Z,1.63
2024-05-09T09:36:11.693Z,1.65
2024-05-09T09:39:16.885Z,1.70
2024-05-09T09:42:20.491Z,1.50
2024-05-09T09:45:24.331Z,2.30
2024-05-09T09:48:31.458Z,1.88
2024-05-09T09:51:33.743Z,1.90
2024-05-09T09:54:35.993Z,1.63
2024-05-09T09:57:40.267Z,1.92
2024-05-09T10:00:42.570Z,1.90
2024-05-09T10:03:47.488Z,1.85
2024-05-09T10:06:53.892Z,1.80
2024-05-09T10:09:56.509Z,1.50
2024-05-09T10:12:58.776Z,1.50
2024-05-09T10:16:07.712Z,2.08
2024-05-09T10:19:25.388Z,1.50
2024-05-09T10:22:27.950Z,1.83
2024-05-09T10:25:29.897Z,1.83
2024-05-09T10:28:33.014Z,1.80
2024-05-09T10:31:38.656Z,1.92
2024-05-09T10:34:43.395Z,2.10
2024-05-09T10:37:45.334Z,1.70
2024-05-09T10:40:48.027Z,1.40
2024-05-09T10:43:50.499Z,1.60
2024-05-09T10:46:52.677Z,1.65
2024-05-09T10:49:57.322Z,1.60
2024-05-09T10:52:59.151Z,1.70
2024-05-09T10:56:02.030Z,1.63
2024-05-09T10:59:04.100Z,1.83
2024-05-09T11:02:07.252Z,1.40
2024-05-09T11:08:14.782Z,1.60
2024-05-09T11:11:16.933Z,1.52
2024-05-09T11:14:18.815Z,1.70
2024-05-09T11:17:20.842Z,1.52
2024-05-09T11:20:35.493Z,1.45
2024-05-09T11:23:38.032Z,1.80
2024-05-09T11:26:40.038Z,1.70
2024-05-09T11:29:42.924Z,1.55
2024-05-09T11:32:44.837Z,1.58
2024-05-09T11:35:49.405Z,1.60
2024-05-09T11:38:51.304Z,1.30
2024-05-09T11:41:53.180Z,1.58
2024-05-09T11:44:55.035Z,1.60
2024-05-09T11:47:57.110Z,1.35
2024-05-09T11:51:01.652Z,1.42
2024-05-09T11:54:03.651Z,1.25
2024-05-09T11:57:05.672Z,2.10
2024-05-09T12:00:11.871Z,1.50
2024-05-09T12:03:13.992Z,1.30
2024-05-09T12:06:18.631Z,1.40
2024-05-09T12:09:20.629Z,1.58
2024-05-09T12:12:22.491Z,1.52
2024-05-09T12:15:24.370Z,1.60
2024-05-09T12:18:26.423Z,1.70
2024-05-09T12:21:31.023Z,1.48
2024-05-09T12:24:33.006Z,1.50
2024-05-09T12:27:35.111Z,1.70
2024-05-09T12:30:39.844Z,1.65
2024-05-09T12:33:43.140Z,1.50
2024-05-09T12:36:47.821Z,1.42
2024-05-09T12:39:49.740Z,1.20
2024-05-09T12:42:51.629Z,1.30
2024-05-09T12:45:53.576Z,1.48
2024-05-09T12:48:55.662Z,1.60
2024-05-09T12:52:00.390Z,1.50
2024-05-09T12:55:03.831Z,1.50
2024-05-09T12:58:06.027Z,1.80
2024-05-09T13:01:07.973Z,1.63
2024-05-09T13:04:10.064Z,1.50
2024-05-09T13:07:15.414Z,1.40
2024-05-09T13:10:25.568Z,1.70
2024-05-09T13:13:33.348Z,1.40
2024-05-09T13:16:35.423Z,1.50
2024-05-09T13:19:37.380Z,1.58
2024-05-09T13:22:41.864Z,1.70
2024-05-09T13:25:43.797Z,1.65
2024-05-09T13:28:45.768Z,1.60
2024-05-09T13:31:47.567Z,1.50
2024-05-09T13:34:49.494Z,1.60
2024-05-09T13:37:54.117Z,1.48
2024-05-09T13:40:56.033Z,1.88
2024-05-09T13:43:57.917Z,1.50
2024-05-09T13:46:59.959Z,1.50
2024-05-09T13:50:02.804Z,1.42
2024-05-09T13:53:09.046Z,1.50
2024-05-09T13:56:11.236Z,1.50
2024-05-09T13:59:13.201Z,1.40
2024-05-09T14:02:15.212Z,1.77
2024-05-09T14:05:17.513Z,1.80
2024-05-09T14:08:22.819Z,1.83
2024-05-09T14:11:24.941Z,1.60
2024-05-09T14:14:26.824Z,1.55
2024-05-09T14:17:29.664Z,1.65
2024-05-09T14:20:32.587Z,1.60
2024-05-09T14:23:37.280Z,1.50
2024-05-09T14:26:39.156Z,1.40
2024-05-09T14:29:41.096Z,1.60
2024-05-09T14:32:43.078Z,1.60
2024-05-09T14:35:45.003Z,1.50
2024-05-09T14:38:49.559Z,1.60
2024-05-09T14:41:51.393Z,1.60
2024-05-09T14:44:53.254Z,1.73
2024-05-09T14:47:55.231Z,1.60
2024-05-09T14:50:57.123Z,1.60
2024-05-09T14:54:01.665Z,1.50
2024-05-09T14:57:03.973Z,1.77
2024-05-09T15:00:09.031Z,1.60
2024-05-09T15:03:13.464Z,1.85
2024-05-09T15:06:17.272Z,1.83
2024-05-09T15:09:21.838Z,1.70
2024-05-09T15:12:23.799Z,1.60
2024-05-09T15:15:25.649Z,1.42
2024-05-09T15:18:27.728Z,1.30
2024-05-09T15:21:29.767Z,1.40
2024-05-09T15:24:34.329Z,1.70
2024-05-09T15:27:36.300Z,1.90
2024-05-09T15:30:38.665Z,1.60
2024-05-09T15:33:41.598Z,1.40
2024-05-09T15:36:43.609Z,1.58
2024-05-09T15:39:48.620Z,1.88
2024-05-09T15:42:50.562Z,1.73
2024-05-09T15:45:52.615Z,1.52
2024-05-09T15:48:54.645Z,1.67
2024-05-09T15:51:56.567Z,1.80
2024-05-09T15:55:01.129Z,1.80
2024-05-09T15:58:04.293Z,2.10
2024-05-09T16:01:06.729Z,1.70
2024-05-09T16:04:08.815Z,1.90
2024-05-09T16:07:11.180Z,1.50
2024-05-09T16:10:22.713Z,2.10
2024-05-09T16:13:27.681Z,1.80
2024-05-09T16:16:29.707Z,2.00
2024-05-09T16:19:31.696Z,2.03
2024-05-09T16:22:33.569Z,2.10
2024-05-09T16:25:38.926Z,1.90
2024-05-09T16:28:40.820Z,1.92
2024-05-09T16:31:42.681Z,2.00
2024-05-09T16:34:44.559Z,2.17
2024-05-09T16:37:46.487Z,1.92
2024-05-09T16:40:51.157Z,1.63
2024-05-09T16:43:53.062Z,2.00
2024-05-09T16:46:55.005Z,1.88
2024-05-09T16:49:56.873Z,2.03
2024-05-09T16:52:58.775Z,1.90
2024-05-09T16:56:03.339Z,2.10
2024-05-09T16:59:05.332Z,1.80
2024-05-09T17:02:07.313Z,1.90
2024-05-09T17:05:09.625Z,1.67
2024-05-09T17:08:12.165Z,1.80
2024-05-09T17:11:16.873Z,1.80
2024-05-09T17:14:18.832Z,1.67
2024-05-09T17:17:21.189Z,1.90
2024-05-09T17:20:31.232Z,1.92
2024-05-09T17:23:36.156Z,2.05
2024-05-09T17:26:40.756Z,1.90
2024-05-09T17:29:42.731Z,1.73
2024-05-09T17:32:44.605Z,1.88
2024-05-09T17:35:46.737Z,2.05
2024-05-09T17:38:48.664Z,1.90
2024-05-09T17:41:53.088Z,1.88
2024-05-09T17:44:54.911Z,2.00
2024-05-09T17:47:56.927Z,1.65
2024-05-09T17:50:59.015Z,1.70
2024-05-09T17:54:00.856Z,1.73
2024-05-09T17:57:05.892Z,1.95
2024-05-09T18:00:11.605Z,1.88
2024-05-09T18:03:14.837Z,2.17
2024-05-09T18:06:16.870Z,2.30
2024-05-09T18:09:18.686Z,2.05
2024-05-09T18:12:23.186Z,2.20
2024-05-09T18:15:24.980Z,3.90
2024-05-09T18:18:26.975Z,2.20
2024-05-09T18:21:28.842Z,2.03
2024-05-09T18:24:30.772Z,2.40
2024-05-09T18:27:35.789Z,1.90
2024-05-09T18:30:38.360Z,2.17
2024-05-09T18:33:40.496Z,2.58
2024-05-09T18:36:42.985Z,2.20
2024-05-09T18:39:44.972Z,2.30
2024-05-09T18:42:49.939Z,2.33
2024-05-09T18:45:52.424Z,2.30
2024-05-09T18:48:55.537Z,2.20
2024-05-09T18:54:59.861Z,1.95
2024-05-09T18:58:05.018Z,2.30
2024-05-09T19:01:07.572Z,2.10
2024-05-09T19:04:10.152Z,2.38
2024-05-09T19:07:13.704Z,2.13
2024-05-09T19:10:22.660Z,2.35
2024-05-09T19:13:30.586Z,2.83
2024-05-09T19:16:34.380Z,2.90
2024-05-09T19:19:37.663Z,2.75
2024-05-09T19:25:42.503Z,3.88
2024-05-09T19:28:48.076Z,4.95
2024-05-09T19:31:50.940Z,5.82
2024-05-09T19:34:54.099Z,6.57
2024-05-09T19:37:57.235Z,5.63
2024-05-09T19:40:59.330Z,5.28
2024-05-09T19:44:04.954Z,4.22
2024-05-09T19:47:07.857Z,3.50
2024-05-09T19:50:14.076Z,3.67
2024-05-09T19:53:21.422Z,2.97
2024-05-09T19:56:23.761Z,2.63
2024-05-09T19:59:28.734Z,3.13
2024-05-09T20:02:31.393Z,2.40
2024-05-09T20:05:34.561Z,2.28
2024-05-09T20:11:39.418Z,2.47
2024-05-09T20:14:45.175Z,2.30
2024-05-09T20:17:47.940Z,2.00
2024-05-09T20:20:53.851Z,2.00
2024-05-09T20:23:59.618Z,2.10
2024-05-09T20:27:02.372Z,2.50
2024-05-09T20:30:12.265Z,2.58
2024-05-09T20:33:17.832Z,2.33
2024-05-09T20:36:20.498Z,1.98
2024-05-09T20:39:25.730Z,2.20
2024-05-09T20:42:28.256Z,2.08
2024-05-09T20:45:33.019Z,2.10
2024-05-09T20:48:35.297Z,1.92
2024-05-09T20:51:37.526Z,2.00
2024-05-09T20:54:39.505Z,1.80
2024-05-09T20:57:41.427Z,1.98
2024-05-09T21:00:46.610Z,2.05
2024-05-09T21:03:48.730Z,2.10
2024-05-09T21:06:50.845Z,2.03
2024-05-09T21:09:53.082Z,1.90
2024-05-09T21:12:54.989Z,2.20
2024-05-09T21:15:59.655Z,2.60
2024-05-09T21:19:01.623Z,2.10
2024-05-09T21:22:03.695Z,2.13
2024-05-09T21:25:05.927Z,2.25
2024-05-09T21:28:07.886Z,2.13
2024-05-09T21:31:12.535Z,2.20
2024-05-09T21:34:14.545Z,2.65
2024-05-09T21:37:16.671Z,2.20
2024-05-09T21:40:26.975Z,2.35
2024-05-09T21:43:35.612Z,2.35
2024-05-09T21:46:40.164Z,2.10
2024-05-09T21:49:42.159Z,2.13
2024-05-09T21:52:44.093Z,2.15
2024-05-09T21:55:46.786Z,2.60
2024-05-09T21:58:48.701Z,2.28
2024-05-09T22:01:53.235Z,2.47
2024-05-09T22:04:55.540Z,2.42
2024-05-09T22:07:57.643Z,2.30
2024-05-09T22:10:59.582Z,2.30
2024-05-09T22:14:01.478Z,2.65
2024-05-09T22:17:06.097Z,2.60
2024-05-09T22:20:17.892Z,2.47
2024-05-09T22:23:23.817Z,2.58
2024-05-09T22:26:25.681Z,2.55
2024-05-09T22:29:27.597Z,1.95
2024-05-09T22:32:32.186Z,2.22
2024-05-09T22:35:34.155Z,2.45
2024-05-09T22:38:35.996Z,2.20
2024-05-09T22:41:39.594Z,2.35
2024-05-09T22:44:41.461Z,2.08
2024-05-09T22:47:45.985Z,2.10
2024-05-09T22:50:47.935Z,2.17
2024-05-09T22:53:49.825Z,2.15
2024-05-09T22:56:51.667Z,2.50
2024-05-09T22:59:53.479Z,2.55
2024-05-09T23:02:58.778Z,2.55
2024-05-09T23:06:00.701Z,2.33
2024-05-09T23:09:02.559Z,3.25
2024-05-09T23:12:05.358Z,2.55
2024-05-09T23:15:07.781Z,2.50
2024-05-09T23:18:12.297Z,2.30
2024-05-09T23:21:14.194Z,2.42
2024-05-09T23:24:16.003Z,2.20
2024-05-09T23:27:17.878Z,2.25
2024-05-09T23:30:29.163Z,2.90
2024-05-09T23:33:45.299Z,2.63
2024-05-09T23:36:47.440Z,2.33
2024-05-09T23:39:49.356Z,2.80
2024-05-09T23:42:51.272Z,2.38
2024-05-09T23:45:53.215Z,2.63
2024-05-09T23:48:57.869Z,2.78
2024-05-09T23:51:59.849Z,2.70
2024-05-09T23:55:01.846Z,2.80
2024-05-09T23:58:04.050Z,2.50
